sensor_id;sensor_type;location;lat;lon;timestamp;pressure;altitude;pressure_sealevel;temperature;humidity
12536;BME280;6334;48.696;2.114;2022-08-16T00:00:25;99039.33;;;21.12;82.66
12536;BME280;6334;48.696;2.114;2022-08-16T00:02:54;99040.37;;;21.14;82.67
12536;BME280;6334;48.696;2.114;2022-08-16T00:05:25;99038.14;;;21.29;81.55
12536;BME280;6334;48.696;2.114;2022-08-16T00:07:55;99036.77;;;21.30;81.92
12536;BME280;6334;48.696;2.114;2022-08-16T00:10:27;99037.12;;;21.25;81.66
12536;BME280;6334;48.696;2.114;2022-08-16T00:12:56;99042.11;;;21.21;81.99
12536;BME280;6334;48.696;2.114;2022-08-16T00:15:35;99040.42;;;21.15;82.42
12536;BME280;6334;48.696;2.114;2022-08-16T00:18:03;99040.50;;;21.18;82.28
12536;BME280;6334;48.696;2.114;2022-08-16T00:20:33;99046.30;;;21.27;82.08
12536;BME280;6334;48.696;2.114;2022-08-16T00:23:04;99045.30;;;21.13;82.41
12536;BME280;6334;48.696;2.114;2022-08-16T00:25:34;99044.80;;;21.13;82.60
12536;BME280;6334;48.696;2.114;2022-08-16T00:28:05;99046.66;;;21.01;82.84
12536;BME280;6334;48.696;2.114;2022-08-16T00:30:35;99043.05;;;20.95;83.54
12536;BME280;6334;48.696;2.114;2022-08-16T00:33:06;99042.61;;;20.73;83.49
12536;BME280;6334;48.696;2.114;2022-08-16T00:35:36;99034.73;;;20.65;83.98
12536;BME280;6334;48.696;2.114;2022-08-16T00:38:06;99047.39;;;20.65;83.85
12536;BME280;6334;48.696;2.114;2022-08-16T00:40:41;99033.70;;;20.72;83.78
12536;BME280;6334;48.696;2.114;2022-08-16T00:43:14;99031.98;;;20.72;83.59
12536;BME280;6334;48.696;2.114;2022-08-16T00:48:31;99029.73;;;20.61;84.58
12536;BME280;6334;48.696;2.114;2022-08-16T00:51:02;99031.91;;;20.76;83.85
12536;BME280;6334;48.696;2.114;2022-08-16T00:53:32;98990.92;;;20.60;83.76
12536;BME280;6334;48.696;2.114;2022-08-16T00:56:05;99019.80;;;20.68;83.87
12536;BME280;6334;48.696;2.114;2022-08-16T00:58:34;99023.45;;;20.66;84.25
12536;BME280;6334;48.696;2.114;2022-08-16T01:01:04;99024.65;;;20.64;84.81
12536;BME280;6334;48.696;2.114;2022-08-16T01:03:34;99029.73;;;20.49;84.94
12536;BME280;6334;48.696;2.114;2022-08-16T01:06:04;99033.96;;;20.60;84.65
12536;BME280;6334;48.696;2.114;2022-08-16T01:08:35;99033.62;;;20.40;85.29
12536;BME280;6334;48.696;2.114;2022-08-16T01:11:05;99028.13;;;20.45;85.47
12536;BME280;6334;48.696;2.114;2022-08-16T01:13:36;99027.83;;;20.44;85.24
12536;BME280;6334;48.696;2.114;2022-08-16T01:16:10;99027.13;;;20.38;85.55
12536;BME280;6334;48.696;2.114;2022-08-16T01:18:41;99021.02;;;20.53;85.51
12536;BME280;6334;48.696;2.114;2022-08-16T01:21:24;99021.73;;;20.44;85.06
12536;BME280;6334;48.696;2.114;2022-08-16T01:26:30;99015.77;;;20.58;85.26
12536;BME280;6334;48.696;2.114;2022-08-16T01:29:04;99015.36;;;20.49;85.64
12536;BME280;6334;48.696;2.114;2022-08-16T01:31:31;99005.75;;;20.76;84.52
12536;BME280;6334;48.696;2.114;2022-08-16T01:34:02;99008.77;;;21.00;84.77
12536;BME280;6334;48.696;2.114;2022-08-16T01:36:32;99006.09;;;20.68;84.96
12536;BME280;6334;48.696;2.114;2022-08-16T01:39:07;99005.05;;;20.52;85.30
12536;BME280;6334;48.696;2.114;2022-08-16T01:41:33;99006.89;;;20.50;85.63
12536;BME280;6334;48.696;2.114;2022-08-16T01:44:03;99012.73;;;20.50;85.61
12536;BME280;6334;48.696;2.114;2022-08-16T01:46:35;98959.00;;;20.11;85.84
12536;BME280;6334;48.696;2.114;2022-08-16T01:49:09;98990.62;;;20.61;84.83
12536;BME280;6334;48.696;2.114;2022-08-16T01:51:35;99005.27;;;20.71;84.94
12536;BME280;6334;48.696;2.114;2022-08-16T01:54:05;99009.64;;;20.50;86.25
12536;BME280;6334;48.696;2.114;2022-08-16T01:56:35;99008.52;;;20.64;85.78
12536;BME280;6334;48.696;2.114;2022-08-16T01:59:07;99009.44;;;20.53;86.10
12536;BME280;6334;48.696;2.114;2022-08-16T02:01:36;99009.66;;;20.45;86.54
12536;BME280;6334;48.696;2.114;2022-08-16T02:04:07;99007.66;;;20.56;86.13
12536;BME280;6334;48.696;2.114;2022-08-16T02:06:38;99005.70;;;20.77;84.88
12536;BME280;6334;48.696;2.114;2022-08-16T02:09:08;99000.87;;;20.78;85.06
12536;BME280;6334;48.696;2.114;2022-08-16T02:11:39;98999.23;;;20.61;85.47
12536;BME280;6334;48.696;2.114;2022-08-16T02:14:09;98989.14;;;20.71;85.81
12536;BME280;6334;48.696;2.114;2022-08-16T02:16:39;98954.80;;;20.77;84.67
12536;BME280;6334;48.696;2.114;2022-08-16T02:19:10;98923.03;;;20.80;83.00
12536;BME280;6334;48.696;2.114;2022-08-16T02:21:40;98966.86;;;20.92;84.13
12536;BME280;6334;48.696;2.114;2022-08-16T02:24:11;98962.62;;;20.59;86.49
12536;BME280;6334;48.696;2.114;2022-08-16T02:26:41;98956.29;;;20.30;90.86
12536;BME280;6334;48.696;2.114;2022-08-16T02:29:11;98891.49;;;20.39;88.47
12536;BME280;6334;48.696;2.114;2022-08-16T02:31:42;98963.15;;;20.96;86.55
12536;BME280;6334;48.696;2.114;2022-08-16T02:34:13;98936.91;;;20.31;87.89
12536;BME280;6334;48.696;2.114;2022-08-16T02:36:43;98972.36;;;20.47;88.07
12536;BME280;6334;48.696;2.114;2022-08-16T02:39:14;98969.05;;;20.76;87.59
12536;BME280;6334;48.696;2.114;2022-08-16T02:41:44;98956.92;;;20.92;86.23
12536;BME280;6334;48.696;2.114;2022-08-16T02:44:14;98928.94;;;20.58;87.22
12536;BME280;6334;48.696;2.114;2022-08-16T02:46:45;98947.92;;;20.64;87.54
12536;BME280;6334;48.696;2.114;2022-08-16T02:49:15;98949.88;;;20.65;86.89
12536;BME280;6334;48.696;2.114;2022-08-16T02:51:46;98892.89;;;19.95;89.45
12536;BME280;6334;48.696;2.114;2022-08-16T02:54:16;98918.17;;;20.35;87.96
12536;BME280;6334;48.696;2.114;2022-08-16T02:56:46;98943.09;;;20.52;87.59
12536;BME280;6334;48.696;2.114;2022-08-16T02:59:17;98949.89;;;20.94;86.04
12536;BME280;6334;48.696;2.114;2022-08-16T03:01:47;98958.42;;;20.53;87.69
12536;BME280;6334;48.696;2.114;2022-08-16T03:04:18;98962.80;;;20.48;88.64
12536;BME280;6334;48.696;2.114;2022-08-16T03:06:49;98969.08;;;20.41;88.45
12536;BME280;6334;48.696;2.114;2022-08-16T03:09:19;98966.58;;;20.44;88.35
12536;BME280;6334;48.696;2.114;2022-08-16T03:11:49;98970.81;;;20.25;88.36
12536;BME280;6334;48.696;2.114;2022-08-16T03:14:20;98977.56;;;20.24;88.44
12536;BME280;6334;48.696;2.114;2022-08-16T03:16:50;98955.56;;;19.91;89.13
12536;BME280;6334;48.696;2.114;2022-08-16T03:19:21;98980.09;;;19.96;90.33
12536;BME280;6334;48.696;2.114;2022-08-16T03:21:51;98983.23;;;19.97;90.68
12536;BME280;6334;48.696;2.114;2022-08-16T03:24:21;98985.16;;;20.07;89.88
12536;BME280;6334;48.696;2.114;2022-08-16T03:26:52;98986.84;;;20.00;89.64
12536;BME280;6334;48.696;2.114;2022-08-16T03:29:22;98993.86;;;20.15;89.58
12536;BME280;6334;48.696;2.114;2022-08-16T03:31:53;98912.84;;;19.68;89.71
12536;BME280;6334;48.696;2.114;2022-08-16T03:34:23;98961.95;;;20.25;87.96
12536;BME280;6334;48.696;2.114;2022-08-16T03:36:54;98968.31;;;20.18;88.37
12536;BME280;6334;48.696;2.114;2022-08-16T03:39:24;98983.22;;;20.37;88.24
12536;BME280;6334;48.696;2.114;2022-08-16T03:41:55;98982.94;;;20.41;90.72
12536;BME280;6334;48.696;2.114;2022-08-16T03:44:26;98986.61;;;20.38;90.65
12536;BME280;6334;48.696;2.114;2022-08-16T03:46:56;98985.78;;;20.30;89.35
12536;BME280;6334;48.696;2.114;2022-08-16T03:49:26;98978.38;;;20.17;89.87
12536;BME280;6334;48.696;2.114;2022-08-16T03:51:57;98973.21;;;20.19;89.56
12536;BME280;6334;48.696;2.114;2022-08-16T03:54:27;98983.86;;;20.40;88.57
12536;BME280;6334;48.696;2.114;2022-08-16T03:56:58;98983.13;;;20.16;89.43
12536;BME280;6334;48.696;2.114;2022-08-16T03:59:28;98985.94;;;20.27;88.60
12536;BME280;6334;48.696;2.114;2022-08-16T04:01:59;98980.20;;;20.01;89.55
12536;BME280;6334;48.696;2.114;2022-08-16T04:04:29;98984.38;;;20.06;89.46
12536;BME280;6334;48.696;2.114;2022-08-16T04:07:00;98984.02;;;20.01;90.00
12536;BME280;6334;48.696;2.114;2022-08-16T04:09:31;98992.75;;;20.27;89.14
12536;BME280;6334;48.696;2.114;2022-08-16T04:12:00;98988.40;;;20.26;88.79
12536;BME280;6334;48.696;2.114;2022-08-16T04:14:31;98983.73;;;20.30;88.13
12536;BME280;6334;48.696;2.114;2022-08-16T04:17:01;98983.16;;;20.24;88.54
12536;BME280;6334;48.696;2.114;2022-08-16T04:19:32;98973.42;;;20.03;89.29
12536;BME280;6334;48.696;2.114;2022-08-16T04:22:02;98979.39;;;20.05;89.90
12536;BME280;6334;48.696;2.114;2022-08-16T04:24:33;98981.98;;;20.14;89.08
12536;BME280;6334;48.696;2.114;2022-08-16T04:27:03;98980.93;;;20.28;88.05
12536;BME280;6334;48.696;2.114;2022-08-16T04:29:33;98975.25;;;20.38;87.75
12536;BME280;6334;48.696;2.114;2022-08-16T04:32:04;98976.53;;;20.36;87.89
12536;BME280;6334;48.696;2.114;2022-08-16T04:34:36;98978.86;;;20.24;88.54
12536;BME280;6334;48.696;2.114;2022-08-16T04:37:05;98986.82;;;19.97;89.72
12536;BME280;6334;48.696;2.114;2022-08-16T04:39:35;98992.18;;;19.98;89.61
12536;BME280;6334;48.696;2.114;2022-08-16T04:42:06;98992.73;;;20.09;88.78
12536;BME280;6334;48.696;2.114;2022-08-16T04:44:36;98990.34;;;19.97;89.71
12536;BME280;6334;48.696;2.114;2022-08-16T04:47:07;98989.65;;;19.82;89.67
12536;BME280;6334;48.696;2.114;2022-08-16T04:49:37;98994.53;;;19.93;89.13
12536;BME280;6334;48.696;2.114;2022-08-16T04:52:08;98995.22;;;19.96;88.93
12536;BME280;6334;48.696;2.114;2022-08-16T04:54:38;98996.44;;;20.07;88.90
12536;BME280;6334;48.696;2.114;2022-08-16T04:57:08;98996.41;;;20.09;88.37
12536;BME280;6334;48.696;2.114;2022-08-16T04:59:39;98997.92;;;20.19;87.69
12536;BME280;6334;48.696;2.114;2022-08-16T05:02:09;99001.87;;;20.01;88.98
12536;BME280;6334;48.696;2.114;2022-08-16T05:04:40;99005.53;;;19.90;89.64
12536;BME280;6334;48.696;2.114;2022-08-16T05:07:10;99013.16;;;19.76;89.73
12536;BME280;6334;48.696;2.114;2022-08-16T05:09:41;99012.77;;;19.80;90.15
12536;BME280;6334;48.696;2.114;2022-08-16T05:12:11;99007.37;;;20.12;88.95
12536;BME280;6334;48.696;2.114;2022-08-16T05:14:42;99006.02;;;20.16;88.50
12536;BME280;6334;48.696;2.114;2022-08-16T05:17:12;98963.37;;;19.74;88.48
12536;BME280;6334;48.696;2.114;2022-08-16T05:19:43;99008.56;;;20.42;86.59
12536;BME280;6334;48.696;2.114;2022-08-16T05:22:13;99009.45;;;20.57;85.91
12536;BME280;6334;48.696;2.114;2022-08-16T05:24:43;99011.23;;;20.63;85.84
12536;BME280;6334;48.696;2.114;2022-08-16T05:27:14;99002.22;;;20.58;85.85
12536;BME280;6334;48.696;2.114;2022-08-16T05:29:44;99018.09;;;20.79;85.39
12536;BME280;6334;48.696;2.114;2022-08-16T05:32:15;99023.28;;;20.55;86.50
12536;BME280;6334;48.696;2.114;2022-08-16T05:34:45;99026.85;;;20.50;88.08
12536;BME280;6334;48.696;2.114;2022-08-16T05:37:16;99030.95;;;20.42;89.59
12536;BME280;6334;48.696;2.114;2022-08-16T05:39:46;99032.77;;;20.57;88.33
12536;BME280;6334;48.696;2.114;2022-08-16T05:42:17;99025.30;;;20.58;87.81
12536;BME280;6334;48.696;2.114;2022-08-16T05:44:47;99036.94;;;20.79;86.01
12536;BME280;6334;48.696;2.114;2022-08-16T05:47:18;99046.58;;;20.52;86.92
12536;BME280;6334;48.696;2.114;2022-08-16T05:49:48;99039.70;;;20.46;87.02
12536;BME280;6334;48.696;2.114;2022-08-16T05:52:19;99048.05;;;20.43;87.44
12536;BME280;6334;48.696;2.114;2022-08-16T05:54:49;99045.31;;;20.71;86.48
12536;BME280;6334;48.696;2.114;2022-08-16T05:57:19;99048.55;;;20.61;86.26
12536;BME280;6334;48.696;2.114;2022-08-16T05:59:50;99049.28;;;20.81;85.77
12536;BME280;6334;48.696;2.114;2022-08-16T06:02:20;99038.13;;;20.74;85.94
12536;BME280;6334;48.696;2.114;2022-08-16T06:04:51;99048.75;;;20.52;87.03
12536;BME280;6334;48.696;2.114;2022-08-16T06:07:21;99046.50;;;20.75;86.23
12536;BME280;6334;48.696;2.114;2022-08-16T06:09:52;99054.88;;;20.70;86.02
12536;BME280;6334;48.696;2.114;2022-08-16T06:12:22;99055.57;;;20.53;86.83
12536;BME280;6334;48.696;2.114;2022-08-16T06:14:53;99059.27;;;20.79;85.87
12536;BME280;6334;48.696;2.114;2022-08-16T06:17:23;99060.48;;;20.69;86.49
12536;BME280;6334;48.696;2.114;2022-08-16T06:19:53;99054.83;;;20.76;86.93
12536;BME280;6334;48.696;2.114;2022-08-16T06:22:24;99055.79;;;20.80;86.45
12536;BME280;6334;48.696;2.114;2022-08-16T06:24:54;99055.20;;;20.63;86.70
12536;BME280;6334;48.696;2.114;2022-08-16T06:27:25;99053.78;;;21.04;85.55
12536;BME280;6334;48.696;2.114;2022-08-16T06:29:55;99057.00;;;20.89;86.11
12536;BME280;6334;48.696;2.114;2022-08-16T06:32:26;99062.23;;;20.91;86.28
12536;BME280;6334;48.696;2.114;2022-08-16T06:34:56;99060.67;;;20.88;86.19
12536;BME280;6334;48.696;2.114;2022-08-16T06:37:27;99062.12;;;20.95;86.48
12536;BME280;6334;48.696;2.114;2022-08-16T06:39:57;99059.42;;;20.78;86.53
12536;BME280;6334;48.696;2.114;2022-08-16T06:42:28;99060.20;;;20.82;86.26
12536;BME280;6334;48.696;2.114;2022-08-16T06:44:58;99064.73;;;21.01;85.72
12536;BME280;6334;48.696;2.114;2022-08-16T06:47:29;99069.11;;;20.86;85.74
12536;BME280;6334;48.696;2.114;2022-08-16T06:49:59;99068.45;;;20.99;86.13
12536;BME280;6334;48.696;2.114;2022-08-16T06:52:29;99059.40;;;20.83;86.46
12536;BME280;6334;48.696;2.114;2022-08-16T06:55:00;99062.91;;;20.95;85.85
12536;BME280;6334;48.696;2.114;2022-08-16T06:57:30;99054.72;;;20.83;85.84
12536;BME280;6334;48.696;2.114;2022-08-16T07:00:02;99072.30;;;20.89;86.19
12536;BME280;6334;48.696;2.114;2022-08-16T07:02:31;99063.51;;;21.17;85.22
12536;BME280;6334;48.696;2.114;2022-08-16T07:05:02;99063.25;;;20.94;85.79
12536;BME280;6334;48.696;2.114;2022-08-16T07:07:32;99047.89;;;20.89;85.82
12536;BME280;6334;48.696;2.114;2022-08-16T07:10:03;99065.89;;;20.98;86.12
12536;BME280;6334;48.696;2.114;2022-08-16T07:12:33;99066.77;;;21.12;85.09
12536;BME280;6334;48.696;2.114;2022-08-16T07:15:04;99068.80;;;21.29;84.78
12536;BME280;6334;48.696;2.114;2022-08-16T07:17:34;99066.27;;;21.18;84.91
12536;BME280;6334;48.696;2.114;2022-08-16T07:20:05;99065.47;;;21.14;84.90
12536;BME280;6334;48.696;2.114;2022-08-16T07:22:35;99072.55;;;21.02;85.56
12536;BME280;6334;48.696;2.114;2022-08-16T07:25:06;99074.60;;;21.42;83.76
12536;BME280;6334;48.696;2.114;2022-08-16T07:27:37;99079.25;;;21.43;83.74
12536;BME280;6334;48.696;2.114;2022-08-16T07:30:07;99082.84;;;21.23;83.87
12536;BME280;6334;48.696;2.114;2022-08-16T07:32:37;99087.63;;;21.30;84.37
12536;BME280;6334;48.696;2.114;2022-08-16T07:35:07;99092.55;;;20.95;85.32
12536;BME280;6334;48.696;2.114;2022-08-16T07:37:38;99090.98;;;21.11;85.17
12536;BME280;6334;48.696;2.114;2022-08-16T07:40:09;99092.65;;;21.27;85.13
12536;BME280;6334;48.696;2.114;2022-08-16T07:42:39;99092.55;;;21.24;84.83
12536;BME280;6334;48.696;2.114;2022-08-16T07:45:10;99093.42;;;21.41;83.38
12536;BME280;6334;48.696;2.114;2022-08-16T07:47:40;99095.60;;;21.41;84.24
12536;BME280;6334;48.696;2.114;2022-08-16T07:50:11;99096.60;;;21.36;84.39
12536;BME280;6334;48.696;2.114;2022-08-16T07:52:41;99096.65;;;21.43;83.78
12536;BME280;6334;48.696;2.114;2022-08-16T07:55:12;99090.27;;;21.70;82.65
12536;BME280;6334;48.696;2.114;2022-08-16T07:57:42;99039.91;;;21.71;81.08
12536;BME280;6334;48.696;2.114;2022-08-16T08:00:12;99096.81;;;22.20;81.37
12536;BME280;6334;48.696;2.114;2022-08-16T08:02:44;99092.25;;;22.09;81.76
12536;BME280;6334;48.696;2.114;2022-08-16T08:05:14;99093.23;;;22.30;80.08
12536;BME280;6334;48.696;2.114;2022-08-16T08:07:44;99089.81;;;22.21;80.31
12536;BME280;6334;48.696;2.114;2022-08-16T08:10:14;99090.73;;;22.52;78.87
12536;BME280;6334;48.696;2.114;2022-08-16T08:12:46;99088.42;;;22.29;80.45
12536;BME280;6334;48.696;2.114;2022-08-16T08:15:15;99084.20;;;22.52;80.03
12536;BME280;6334;48.696;2.114;2022-08-16T08:17:45;99022.70;;;22.15;79.75
12536;BME280;6334;48.696;2.114;2022-08-16T08:20:17;99097.28;;;22.76;78.75
12536;BME280;6334;48.696;2.114;2022-08-16T08:22:47;99099.43;;;22.84;78.07
12536;BME280;6334;48.696;2.114;2022-08-16T08:25:17;99097.01;;;22.41;80.17
12536;BME280;6334;48.696;2.114;2022-08-16T08:27:47;99096.85;;;22.68;78.88
12536;BME280;6334;48.696;2.114;2022-08-16T08:30:18;99102.66;;;22.59;79.26
12536;BME280;6334;48.696;2.114;2022-08-16T08:32:48;99099.25;;;22.76;78.45
12536;BME280;6334;48.696;2.114;2022-08-16T08:35:19;99100.77;;;22.48;79.19
12536;BME280;6334;48.696;2.114;2022-08-16T08:37:49;99105.52;;;22.72;76.70
12536;BME280;6334;48.696;2.114;2022-08-16T08:40:20;99047.63;;;22.45;77.46
12536;BME280;6334;48.696;2.114;2022-08-16T08:42:50;99097.86;;;23.12;75.92
12536;BME280;6334;48.696;2.114;2022-08-16T08:45:20;99039.30;;;22.82;73.69
12536;BME280;6334;48.696;2.114;2022-08-16T08:47:51;99097.08;;;23.17;74.55
12536;BME280;6334;48.696;2.114;2022-08-16T08:50:22;99104.08;;;22.62;77.03
12536;BME280;6334;48.696;2.114;2022-08-16T08:52:52;99113.38;;;23.05;75.28
12536;BME280;6334;48.696;2.114;2022-08-16T08:55:22;99111.05;;;23.19;75.11
12536;BME280;6334;48.696;2.114;2022-08-16T08:57:53;99117.80;;;23.77;72.99
12536;BME280;6334;48.696;2.114;2022-08-16T09:00:24;99112.09;;;24.00;71.51
12536;BME280;6334;48.696;2.114;2022-08-16T09:02:54;99110.63;;;23.60;71.32
12536;BME280;6334;48.696;2.114;2022-08-16T09:05:24;99115.00;;;23.80;71.20
12536;BME280;6334;48.696;2.114;2022-08-16T09:07:55;99120.70;;;24.10;71.78
12536;BME280;6334;48.696;2.114;2022-08-16T09:10:25;99116.84;;;24.15;71.67
12536;BME280;6334;48.696;2.114;2022-08-16T09:12:56;99116.28;;;24.30;69.71
12536;BME280;6334;48.696;2.114;2022-08-16T09:15:26;99115.77;;;24.42;70.00
12536;BME280;6334;48.696;2.114;2022-08-16T09:17:56;99125.02;;;23.62;72.92
12536;BME280;6334;48.696;2.114;2022-08-16T09:20:27;99121.89;;;23.76;72.33
12536;BME280;6334;48.696;2.114;2022-08-16T09:22:57;99129.93;;;23.94;72.26
12536;BME280;6334;48.696;2.114;2022-08-16T09:25:28;99127.91;;;23.94;72.29
12536;BME280;6334;48.696;2.114;2022-08-16T09:27:58;99120.37;;;23.87;73.10
12536;BME280;6334;48.696;2.114;2022-08-16T09:30:29;99134.98;;;24.07;72.06
12536;BME280;6334;48.696;2.114;2022-08-16T09:32:59;99133.11;;;24.09;72.70
12536;BME280;6334;48.696;2.114;2022-08-16T09:35:30;99137.02;;;23.85;73.96
12536;BME280;6334;48.696;2.114;2022-08-16T09:38:00;99137.63;;;24.16;72.82
12536;BME280;6334;48.696;2.114;2022-08-16T09:40:30;99135.00;;;23.80;73.51
12536;BME280;6334;48.696;2.114;2022-08-16T09:43:01;99128.58;;;23.89;73.76
12536;BME280;6334;48.696;2.114;2022-08-16T09:45:31;99129.70;;;23.81;72.69
12536;BME280;6334;48.696;2.114;2022-08-16T09:48:02;99123.63;;;23.79;72.71
12536;BME280;6334;48.696;2.114;2022-08-16T09:50:32;99124.49;;;24.37;71.50
12536;BME280;6334;48.696;2.114;2022-08-16T09:53:03;99123.98;;;24.46;71.62
12536;BME280;6334;48.696;2.114;2022-08-16T09:55:33;99125.80;;;25.16;70.30
12536;BME280;6334;48.696;2.114;2022-08-16T09:58:04;99127.71;;;25.14;69.30
12536;BME280;6334;48.696;2.114;2022-08-16T10:00:34;99128.64;;;24.94;69.81
12536;BME280;6334;48.696;2.114;2022-08-16T10:03:05;99125.25;;;24.68;69.69
12536;BME280;6334;48.696;2.114;2022-08-16T10:05:35;99127.70;;;24.56;70.57
12536;BME280;6334;48.696;2.114;2022-08-16T10:08:05;99128.69;;;24.72;69.72
12536;BME280;6334;48.696;2.114;2022-08-16T10:10:36;99121.06;;;24.73;70.72
12536;BME280;6334;48.696;2.114;2022-08-16T10:13:07;99126.77;;;24.63;69.83
12536;BME280;6334;48.696;2.114;2022-08-16T10:15:40;99128.02;;;24.72;69.02
12536;BME280;6334;48.696;2.114;2022-08-16T10:18:11;99128.72;;;24.43;70.91
12536;BME280;6334;48.696;2.114;2022-08-16T10:20:42;99129.73;;;24.30;70.35
12536;BME280;6334;48.696;2.114;2022-08-16T10:23:12;99132.30;;;24.59;70.68
12536;BME280;6334;48.696;2.114;2022-08-16T10:25:43;99110.28;;;24.37;71.10
12536;BME280;6334;48.696;2.114;2022-08-16T10:28:15;99132.87;;;24.23;71.08
12536;BME280;6334;48.696;2.114;2022-08-16T10:30:42;99134.31;;;24.58;71.47
12536;BME280;6334;48.696;2.114;2022-08-16T10:33:13;99134.63;;;24.61;71.33
12536;BME280;6334;48.696;2.114;2022-08-16T10:35:44;99140.52;;;24.18;71.26
12536;BME280;6334;48.696;2.114;2022-08-16T10:38:14;99131.97;;;24.10;71.00
12536;BME280;6334;48.696;2.114;2022-08-16T10:40:44;99107.73;;;24.00;71.01
12536;BME280;6334;48.696;2.114;2022-08-16T10:43:15;99132.30;;;24.46;70.13
12536;BME280;6334;48.696;2.114;2022-08-16T10:45:45;99129.86;;;24.55;70.07
12536;BME280;6334;48.696;2.114;2022-08-16T10:48:16;99142.73;;;24.72;69.57
12536;BME280;6334;48.696;2.114;2022-08-16T10:50:46;99138.06;;;24.84;69.01
12536;BME280;6334;48.696;2.114;2022-08-16T10:53:17;99139.33;;;25.57;66.26
12536;BME280;6334;48.696;2.114;2022-08-16T10:55:47;99132.80;;;25.60;66.20
12536;BME280;6334;48.696;2.114;2022-08-16T10:58:18;99095.47;;;25.65;66.42
12536;BME280;6334;48.696;2.114;2022-08-16T11:00:48;99131.19;;;26.38;63.58
12536;BME280;6334;48.696;2.114;2022-08-16T11:03:19;99125.45;;;26.02;63.87
12536;BME280;6334;48.696;2.114;2022-08-16T11:05:49;99126.52;;;25.62;64.78
12536;BME280;6334;48.696;2.114;2022-08-16T11:08:19;99132.73;;;25.66;66.56
12536;BME280;6334;48.696;2.114;2022-08-16T11:10:50;99135.89;;;25.47;66.29
12536;BME280;6334;48.696;2.114;2022-08-16T11:13:21;99108.23;;;25.48;66.18
12536;BME280;6334;48.696;2.114;2022-08-16T11:15:51;99135.91;;;25.27;66.46
12536;BME280;6334;48.696;2.114;2022-08-16T11:18:21;99132.73;;;25.07;68.07
12536;BME280;6334;48.696;2.114;2022-08-16T11:20:52;99133.17;;;25.08;65.61
12536;BME280;6334;48.696;2.114;2022-08-16T11:23:22;99140.28;;;25.05;68.40
12536;BME280;6334;48.696;2.114;2022-08-16T11:25:53;99143.38;;;24.49;68.21
12536;BME280;6334;48.696;2.114;2022-08-16T11:28:23;99142.72;;;24.66;67.64
12536;BME280;6334;48.696;2.114;2022-08-16T11:30:53;99146.02;;;24.71;67.36
12536;BME280;6334;48.696;2.114;2022-08-16T11:33:24;99143.53;;;24.68;67.56
12536;BME280;6334;48.696;2.114;2022-08-16T11:35:54;99152.86;;;25.02;67.76
12536;BME280;6334;48.696;2.114;2022-08-16T11:38:25;99152.93;;;24.96;67.00
12536;BME280;6334;48.696;2.114;2022-08-16T11:40:56;99089.98;;;24.44;68.23
12536;BME280;6334;48.696;2.114;2022-08-16T11:43:29;99153.06;;;25.10;66.43
12536;BME280;6334;48.696;2.114;2022-08-16T11:46:00;99154.27;;;24.97;66.08
12536;BME280;6334;48.696;2.114;2022-08-16T11:48:30;99148.80;;;25.11;67.74
12536;BME280;6334;48.696;2.114;2022-08-16T11:51:00;99151.95;;;24.98;67.25
12536;BME280;6334;48.696;2.114;2022-08-16T11:53:30;99153.31;;;25.00;66.98
12536;BME280;6334;48.696;2.114;2022-08-16T11:56:00;99155.77;;;24.80;68.72
12536;BME280;6334;48.696;2.114;2022-08-16T11:58:31;99157.52;;;24.71;70.39
12536;BME280;6334;48.696;2.114;2022-08-16T12:01:02;99158.28;;;24.85;69.45
12536;BME280;6334;48.696;2.114;2022-08-16T12:03:32;99162.03;;;24.69;69.85
12536;BME280;6334;48.696;2.114;2022-08-16T12:06:06;99164.20;;;24.34;71.25
12536;BME280;6334;48.696;2.114;2022-08-16T12:08:33;99163.89;;;24.53;71.09
12536;BME280;6334;48.696;2.114;2022-08-16T12:11:03;99164.80;;;24.42;70.97
12536;BME280;6334;48.696;2.114;2022-08-16T12:13:34;99164.73;;;24.60;71.66
12536;BME280;6334;48.696;2.114;2022-08-16T12:16:04;99158.41;;;24.78;70.81
12536;BME280;6334;48.696;2.114;2022-08-16T12:18:35;99156.51;;;25.20;69.50
12536;BME280;6334;48.696;2.114;2022-08-16T12:21:05;99155.49;;;24.90;70.30
12536;BME280;6334;48.696;2.114;2022-08-16T12:23:36;99158.20;;;24.85;73.34
12536;BME280;6334;48.696;2.114;2022-08-16T12:26:06;99162.14;;;25.04;71.15
12536;BME280;6334;48.696;2.114;2022-08-16T12:28:37;99157.40;;;25.22;71.30
12536;BME280;6334;48.696;2.114;2022-08-16T12:31:07;99155.16;;;25.14;71.39
12536;BME280;6334;48.696;2.114;2022-08-16T12:33:37;99160.06;;;25.15;70.30
12536;BME280;6334;48.696;2.114;2022-08-16T12:36:08;99155.72;;;25.02;70.62
12536;BME280;6334;48.696;2.114;2022-08-16T12:38:39;99151.92;;;25.17;71.38
12536;BME280;6334;48.696;2.114;2022-08-16T12:41:09;99151.39;;;25.05;72.04
12536;BME280;6334;48.696;2.114;2022-08-16T12:43:39;99145.06;;;25.19;71.05
12536;BME280;6334;48.696;2.114;2022-08-16T12:46:10;99140.27;;;25.20;71.36
12536;BME280;6334;48.696;2.114;2022-08-16T12:48:40;99140.13;;;24.91;72.76
12536;BME280;6334;48.696;2.114;2022-08-16T12:51:33;99139.08;;;25.38;70.04
12536;BME280;6334;48.696;2.114;2022-08-16T12:54:03;99135.16;;;25.47;69.19
12536;BME280;6334;48.696;2.114;2022-08-16T12:56:33;99134.45;;;25.56;66.39
12536;BME280;6334;48.696;2.114;2022-08-16T12:59:07;99137.39;;;26.04;67.76
12536;BME280;6334;48.696;2.114;2022-08-16T13:01:33;99126.53;;;25.88;69.26
12536;BME280;6334;48.696;2.114;2022-08-16T13:04:04;99129.23;;;25.69;69.43
12536;BME280;6334;48.696;2.114;2022-08-16T13:06:34;99124.03;;;25.36;67.79
12536;BME280;6334;48.696;2.114;2022-08-16T13:09:04;99117.00;;;25.39;68.74
12536;BME280;6334;48.696;2.114;2022-08-16T13:11:52;99107.43;;;25.46;67.79
12536;BME280;6334;48.696;2.114;2022-08-16T13:14:17;99106.83;;;25.52;67.64
12536;BME280;6334;48.696;2.114;2022-08-16T13:16:48;99102.02;;;25.13;67.50
12536;BME280;6334;48.696;2.114;2022-08-16T13:19:18;99076.03;;;25.42;66.85
12536;BME280;6334;48.696;2.114;2022-08-16T13:21:49;99094.34;;;25.62;67.87
12536;BME280;6334;48.696;2.114;2022-08-16T13:24:19;99097.91;;;25.52;66.32
12536;BME280;6334;48.696;2.114;2022-08-16T13:26:50;99089.25;;;25.54;66.47
12536;BME280;6334;48.696;2.114;2022-08-16T13:29:20;99091.47;;;25.57;68.50
12536;BME280;6334;48.696;2.114;2022-08-16T13:31:51;99095.86;;;25.50;65.20